Time;durP1;ratioP1;P1;durP2;ratioP2;P2;SDS_P1;SDS_P2;PMS_P1;PMS_P2;Temp;Humidity;BMP_temperature;BMP_pressure;BME280_temperature;BME280_humidity;BME280_pressure;Samples;Min_cycle;Max_cycle;Signal;HPM_P1;HPM_P2
2023/01/29 00:01:35;;;;;;;8.47;6.10;;;;;;;;;;5091788;28;20287;-78
2023/01/29 00:04:02;;;;;;;8.97;6.47;;;;;;;;;;5091182;28;20199;-78
2023/01/29 00:06:31;;;;;;;10.67;6.47;;;;;;;;;;5092808;28;20231;-79
2023/01/29 00:08:58;;;;;;;10.97;6.20;;;;;;;;;;5091405;28;20249;-79
2023/01/29 00:11:25;;;;;;;9.40;6.47;;;;;;;;;;5098866;28;20290;-79
2023/01/29 00:13:53;;;;;;;10.17;6.77;;;;;;;;;;5111457;28;20198;-79
2023/01/29 00:16:20;;;;;;;12.07;7.00;;;;;;;;;;5111861;28;20304;-78
2023/01/29 00:18:47;;;;;;;12.67;6.80;;;;;;;;;;5109923;28;20210;-79
2023/01/29 00:21:15;;;;;;;12.63;6.57;;;;;;;;;;5091474;28;20290;-79
2023/01/29 00:23:44;;;;;;;9.00;6.60;;;;;;;;;;5091565;28;20682;-78
2023/01/29 00:26:12;;;;;;;10.83;6.00;;;;;;;;;;5091294;28;20378;-79
2023/01/29 00:28:39;;;;;;;10.60;6.40;;;;;;;;;;5090852;28;20336;-78
2023/01/29 00:31:10;;;;;;;10.60;6.17;;;;;;;;;;5091034;28;20281;-79
2023/01/29 00:33:37;;;;;;;10.83;6.07;;;;;;;;;;5101702;28;20292;-79
2023/01/29 00:36:05;;;;;;;8.00;5.70;;;;;;;;;;5107406;28;20202;-79
2023/01/29 00:38:32;;;;;;;12.00;6.00;;;;;;;;;;5091163;28;20226;-79
2023/01/29 00:46:34;;;;;;;9.80;5.70;;;;;;;;;;5111331;28;20216;-79
2023/01/29 00:49:02;;;;;;;8.47;5.70;;;;;;;;;;5111201;28;20257;-79
2023/01/29 00:51:29;;;;;;;7.73;5.80;;;;;;;;;;5111513;28;20772;-78
2023/01/29 00:53:57;;;;;;;8.60;5.13;;;;;;;;;;5111208;28;20190;-79
2023/01/29 00:56:25;;;;;;;6.50;5.27;;;;;;;;;;5104767;28;20656;-79
2023/01/29 00:58:53;;;;;;;7.77;5.30;;;;;;;;;;5091307;28;20290;-79
2023/01/29 01:03:04;;;;;;;7.67;5.60;;;;;;;;;;5091076;28;20282;-78
2023/01/29 01:04:07;;;;;;;11.33;5.93;;;;;;;;;;5090768;28;20203;-78
2023/01/29 01:06:34;;;;;;;8.00;5.63;;;;;;;;;;5092146;28;20210;-78
2023/01/29 01:11:47;;;;;;;10.27;5.60;;;;;;;;;;5111315;28;20214;-79
2023/01/29 01:14:14;;;;;;;7.73;5.53;;;;;;;;;;5111320;28;20287;-79
2023/01/29 01:16:43;;;;;;;12.97;5.90;;;;;;;;;;5110511;28;20647;-79
2023/01/29 01:19:11;;;;;;;9.00;5.63;;;;;;;;;;5111184;28;20225;-78
2023/01/29 01:21:38;;;;;;;7.50;5.57;;;;;;;;;;5110531;28;20326;-79
2023/01/29 01:24:06;;;;;;;8.67;5.97;;;;;;;;;;5111113;28;20733;-79
2023/01/29 01:26:33;;;;;;;8.43;5.93;;;;;;;;;;5109683;28;20299;-79
2023/01/29 01:29:02;;;;;;;7.40;5.30;;;;;;;;;;5111083;28;20235;-79
2023/01/29 01:31:29;;;;;;;9.00;5.90;;;;;;;;;;5114291;28;20287;-79
2023/01/29 01:33:56;;;;;;;6.97;5.20;;;;;;;;;;5114729;28;20293;-79
2023/01/29 01:36:23;;;;;;;7.47;5.30;;;;;;;;;;5114412;28;20677;-79
2023/01/29 01:38:51;;;;;;;7.80;5.60;;;;;;;;;;5114940;28;20223;-79
2023/01/29 01:41:19;;;;;;;8.67;6.20;;;;;;;;;;5112949;28;20209;-78
2023/01/29 01:43:50;;;;;;;10.63;5.83;;;;;;;;;;5115271;28;20275;-79
2023/01/29 01:46:19;;;;;;;7.97;6.00;;;;;;;;;;5114224;28;20661;-79
2023/01/29 01:48:48;;;;;;;8.23;6.23;;;;;;;;;;5114531;28;20315;-77
2023/01/29 01:51:16;;;;;;;9.17;6.57;;;;;;;;;;5114438;28;20636;-78
2023/01/29 01:53:45;;;;;;;11.43;6.17;;;;;;;;;;5114212;28;20194;-79
2023/01/29 01:56:14;;;;;;;7.83;5.90;;;;;;;;;;5093807;28;20290;-79
2023/01/29 01:58:44;;;;;;;11.70;6.10;;;;;;;;;;5093849;28;20278;-79
2023/01/29 02:01:12;;;;;;;7.57;6.07;;;;;;;;;;5093426;28;20194;-79
2023/01/29 02:09:34;;;;;;;8.30;6.23;;;;;;;;;;5093479;28;20234;-79
2023/01/29 02:12:02;;;;;;;9.77;6.10;;;;;;;;;;5097183;28;20199;-79
2023/01/29 02:14:30;;;;;;;10.63;6.67;;;;;;;;;;5093446;28;20196;-79
2023/01/29 02:16:57;;;;;;;10.23;6.70;;;;;;;;;;5114055;28;20189;-79
2023/01/29 02:19:33;;;;;;;9.27;6.87;;;;;;;;;;5113620;28;20237;-79
2023/01/29 02:22:15;;;;;;;10.00;6.70;;;;;;;;;;5113575;28;20233;-78
2023/01/29 02:24:57;;;;;;;11.37;7.00;;;;;;;;;;5113063;28;20229;-79
2023/01/29 02:27:33;;;;;;;9.40;6.60;;;;;;;;;;5113505;28;20329;-79
2023/01/29 02:30:03;;;;;;;8.30;6.50;;;;;;;;;;5112654;28;20287;-79
2023/01/29 02:32:32;;;;;;;10.13;6.87;;;;;;;;;;5113172;28;20296;-79
2023/01/29 02:37:53;;;;;;;9.33;6.67;;;;;;;;;;5113896;28;20198;-79
2023/01/29 02:40:26;;;;;;;9.93;6.67;;;;;;;;;;5113481;28;20245;-78
2023/01/29 02:42:57;;;;;;;9.07;6.73;;;;;;;;;;5112375;28;20283;-79
2023/01/29 02:45:31;;;;;;;11.27;7.57;;;;;;;;;;5098239;28;20288;-78
2023/01/29 02:47:59;;;;;;;10.57;6.90;;;;;;;;;;5092668;28;20330;-78
2023/01/29 02:50:29;;;;;;;9.93;6.50;;;;;;;;;;5092761;28;20285;-79
2023/01/29 02:52:59;;;;;;;10.50;6.73;;;;;;;;;;5092911;28;20234;-78
2023/01/29 02:55:30;;;;;;;9.57;7.37;;;;;;;;;;5101591;28;20285;-79
2023/01/29 02:58:00;;;;;;;9.80;7.00;;;;;;;;;;5112357;28;20284;-78
2023/01/29 03:00:31;;;;;;;10.30;6.57;;;;;;;;;;5112897;27;20380;-79
2023/01/29 03:03:00;;;;;;;10.47;6.67;;;;;;;;;;5105626;28;20203;-79
2023/01/29 03:05:29;;;;;;;10.20;6.90;;;;;;;;;;5113029;28;20294;-79
2023/01/29 03:07:59;;;;;;;9.57;6.90;;;;;;;;;;5112765;28;20321;-79
2023/01/29 03:10:29;;;;;;;11.00;6.87;;;;;;;;;;5112587;28;20290;-79
2023/01/29 03:13:00;;;;;;;11.47;7.00;;;;;;;;;;5112812;28;20197;-79
2023/01/29 03:15:37;;;;;;;9.43;6.50;;;;;;;;;;5112480;28;20802;-79
2023/01/29 03:18:10;;;;;;;9.67;6.93;;;;;;;;;;5098593;28;20301;-79
2023/01/29 03:20:47;;;;;;;10.13;6.90;;;;;;;;;;5098913;28;20197;-78
2023/01/29 03:23:26;;;;;;;9.67;6.57;;;;;;;;;;5112642;28;20189;-80
2023/01/29 03:34:15;;;;;;;10.57;7.60;;;;;;;;;;5092152;28;20593;-78
2023/01/29 03:36:46;;;;;;;10.00;6.97;;;;;;;;;;5091911;28;20195;-79
2023/01/29 03:39:14;;;;;;;9.20;6.83;;;;;;;;;;5098640;28;20284;-79
2023/01/29 03:41:45;;;;;;;9.87;7.00;;;;;;;;;;5111908;28;20281;-79
2023/01/29 03:44:15;;;;;;;10.73;6.93;;;;;;;;;;5112342;28;20630;-78
2023/01/29 03:46:47;;;;;;;11.63;6.87;;;;;;;;;;5111584;28;20288;-79
2023/01/29 03:49:20;;;;;;;10.83;7.17;;;;;;;;;;5111900;28;20704;-79
2023/01/29 03:51:54;;;;;;;11.27;6.77;;;;;;;;;;5111351;28;20305;-79
2023/01/29 03:54:25;;;;;;;9.90;6.83;;;;;;;;;;5111447;28;20222;-79
2023/01/29 03:56:56;;;;;;;10.33;7.50;;;;;;;;;;5111763;28;20197;-78
2023/01/29 03:59:39;;;;;;;12.23;7.10;;;;;;;;;;5103987;28;20297;-78
2023/01/29 04:02:09;;;;;;;11.10;7.10;;;;;;;;;;5092697;28;20238;-79
2023/01/29 04:04:38;;;;;;;10.03;7.23;;;;;;;;;;5091231;28;20285;-79
2023/01/29 04:07:09;;;;;;;9.73;7.10;;;;;;;;;;5091570;28;20289;-79
2023/01/29 04:09:39;;;;;;;12.47;7.40;;;;;;;;;;5095460;28;20320;-78
2023/01/29 04:12:08;;;;;;;10.87;7.37;;;;;;;;;;5111616;28;20225;-79
2023/01/29 04:14:36;;;;;;;9.53;6.63;;;;;;;;;;5111818;28;20289;-79
2023/01/29 04:17:07;;;;;;;8.93;6.57;;;;;;;;;;5111740;28;20231;-78
2023/01/29 04:19:36;;;;;;;8.57;6.87;;;;;;;;;;5111279;28;20689;-79
2023/01/29 04:22:06;;;;;;;9.13;6.90;;;;;;;;;;5111736;28;20198;-79
2023/01/29 04:24:33;;;;;;;9.53;6.83;;;;;;;;;;5104176;28;20229;-79
2023/01/29 04:27:06;;;;;;;11.70;7.00;;;;;;;;;;5090839;28;20874;-79
2023/01/29 04:29:41;;;;;;;10.10;7.10;;;;;;;;;;5091113;28;20321;-79
2023/01/29 04:32:11;;;;;;;10.27;7.30;;;;;;;;;;5091277;28;20229;-79
2023/01/29 04:34:47;;;;;;;10.53;7.23;;;;;;;;;;5092447;28;20278;-79
2023/01/29 04:37:18;;;;;;;9.60;6.67;;;;;;;;;;5111277;28;20669;-79
2023/01/29 04:39:49;;;;;;;11.87;7.07;;;;;;;;;;5110928;28;20600;-79
2023/01/29 04:42:22;;;;;;;11.43;6.63;;;;;;;;;;5110838;28;20643;-79
2023/01/29 04:44:53;;;;;;;10.87;6.73;;;;;;;;;;5110673;28;20289;-79
2023/01/29 04:47:22;;;;;;;10.33;6.73;;;;;;;;;;5111273;28;20281;-79
2023/01/29 04:49:56;;;;;;;10.70;6.60;;;;;;;;;;5110995;28;20321;-79
2023/01/29 04:52:25;;;;;;;10.40;5.97;;;;;;;;;;5111726;28;20298;-79
2023/01/29 04:54:55;;;;;;;10.00;6.23;;;;;;;;;;5110572;28;20662;-79
2023/01/29 04:57:25;;;;;;;10.90;6.20;;;;;;;;;;5111770;28;20290;-79
2023/01/29 04:59:56;;;;;;;8.57;6.40;;;;;;;;;;5110658;28;20210;-79
2023/01/29 05:02:25;;;;;;;9.43;6.07;;;;;;;;;;5111453;28;20294;-80
2023/01/29 05:04:54;;;;;;;9.90;5.93;;;;;;;;;;5112284;28;20226;-79
2023/01/29 05:07:22;;;;;;;8.70;5.80;;;;;;;;;;5115653;28;20289;-79
2023/01/29 05:09:50;;;;;;;8.03;5.97;;;;;;;;;;5114876;28;20275;-79
2023/01/29 05:12:18;;;;;;;9.73;6.17;;;;;;;;;;5115087;28;20284;-79
2023/01/29 05:14:46;;;;;;;9.47;6.50;;;;;;;;;;5114311;28;20196;-79
2023/01/29 05:17:15;;;;;;;8.43;6.10;;;;;;;;;;5114464;28;20218;-78
2023/01/29 05:19:43;;;;;;;7.27;5.83;;;;;;;;;;5114889;28;20293;-79
2023/01/29 05:22:13;;;;;;;8.67;6.07;;;;;;;;;;5114986;28;20298;-79
2023/01/29 05:24:40;;;;;;;9.50;6.77;;;;;;;;;;5113868;28;20290;-79
2023/01/29 05:29:51;;;;;;;10.20;6.43;;;;;;;;;;5114781;28;20766;-80
2023/01/29 05:32:19;;;;;;;10.83;5.70;;;;;;;;;;5101731;28;20618;-79
2023/01/29 05:34:46;;;;;;;9.13;6.10;;;;;;;;;;5094046;28;20243;-79
2023/01/29 05:37:14;;;;;;;8.70;6.00;;;;;;;;;;5094158;28;20293;-80
2023/01/29 05:39:42;;;;;;;10.50;6.57;;;;;;;;;;5094181;28;20313;-79
2023/01/29 05:42:09;;;;;;;9.33;6.10;;;;;;;;;;5094540;28;20277;-80
2023/01/29 05:44:36;;;;;;;9.70;6.13;;;;;;;;;;5094172;28;20226;-80
2023/01/29 05:47:03;;;;;;;9.27;5.80;;;;;;;;;;5093757;28;20221;-80
2023/01/29 05:49:30;;;;;;;7.50;6.00;;;;;;;;;;5098185;28;20333;-80
2023/01/29 05:51:58;;;;;;;7.03;5.63;;;;;;;;;;5114331;28;20285;-80
2023/01/29 05:54:26;;;;;;;9.67;6.23;;;;;;;;;;5114324;28;20228;-80
2023/01/29 05:56:53;;;;;;;9.10;5.70;;;;;;;;;;5114423;28;20728;-80
2023/01/29 05:59:20;;;;;;;8.40;6.20;;;;;;;;;;5114257;28;20744;-79
2023/01/29 06:01:48;;;;;;;9.07;6.13;;;;;;;;;;5114570;28;20632;-79
2023/01/29 06:04:15;;;;;;;8.37;6.03;;;;;;;;;;5113820;28;20278;-80
2023/01/29 06:06:42;;;;;;;8.90;6.07;;;;;;;;;;5113921;28;20293;-80
2023/01/29 06:09:10;;;;;;;9.13;6.07;;;;;;;;;;5114176;28;20305;-80
2023/01/29 06:11:39;;;;;;;8.67;6.00;;;;;;;;;;5113976;28;20229;-80
2023/01/29 06:14:06;;;;;;;7.97;5.93;;;;;;;;;;5114265;28;20666;-79
2023/01/29 06:16:33;;;;;;;9.77;6.20;;;;;;;;;;5112781;28;20293;-80
2023/01/29 06:19:01;;;;;;;9.17;6.23;;;;;;;;;;5113498;28;20280;-80
2023/01/29 06:21:28;;;;;;;8.10;5.83;;;;;;;;;;5112959;28;20279;-80
2023/01/29 06:23:55;;;;;;;8.67;6.40;;;;;;;;;;5114506;28;20221;-80
2023/01/29 06:26:22;;;;;;;7.20;5.93;;;;;;;;;;5112724;28;20301;-80
2023/01/29 06:28:51;;;;;;;9.83;6.40;;;;;;;;;;5113226;28;20305;-79
2023/01/29 06:31:18;;;;;;;9.67;6.23;;;;;;;;;;5113571;28;20249;-80
2023/01/29 06:33:45;;;;;;;9.33;6.60;;;;;;;;;;5113721;28;20198;-80
2023/01/29 06:36:12;;;;;;;10.23;6.83;;;;;;;;;;5113171;28;20367;-80
2023/01/29 06:38:40;;;;;;;11.00;6.87;;;;;;;;;;5113256;28;21047;-81
2023/01/29 06:41:11;;;;;;;9.70;7.10;;;;;;;;;;5113268;28;20229;-80
2023/01/29 06:43:38;;;;;;;12.73;7.03;;;;;;;;;;5113159;28;20194;-80
2023/01/29 06:46:07;;;;;;;9.30;6.60;;;;;;;;;;5113425;28;20284;-80
2023/01/29 06:48:35;;;;;;;9.40;7.27;;;;;;;;;;5113903;28;20222;-80
2023/01/29 06:51:02;;;;;;;10.73;8.17;;;;;;;;;;5112727;28;20222;-79
2023/01/29 06:53:30;;;;;;;18.70;14.33;;;;;;;;;;5113140;28;20301;-79
2023/01/29 06:55:57;;;;;;;30.70;23.40;;;;;;;;;;5093062;28;20287;-80
2023/01/29 06:58:24;;;;;;;37.67;27.03;;;;;;;;;;5092802;28;20222;-79
2023/01/29 07:00:51;;;;;;;27.83;20.03;;;;;;;;;;5092484;28;20296;-80
2023/01/29 07:03:20;;;;;;;23.13;18.47;;;;;;;;;;5092602;28;20290;-80
2023/01/29 07:05:51;;;;;;;22.00;16.47;;;;;;;;;;5104740;28;20230;-79
2023/01/29 07:08:18;;;;;;;18.87;12.30;;;;;;;;;;5096523;27;20218;-80
2023/01/29 07:10:45;;;;;;;18.50;12.03;;;;;;;;;;5092781;28;20708;-79
2023/01/29 07:13:12;;;;;;;21.70;14.17;;;;;;;;;;5092569;28;20289;-80
2023/01/29 07:15:39;;;;;;;16.50;12.33;;;;;;;;;;5105498;28;20242;-80
2023/01/29 07:18:11;;;;;;;11.57;8.60;;;;;;;;;;5112699;28;20191;-80
2023/01/29 07:20:40;;;;;;;11.83;8.50;;;;;;;;;;5112152;28;20206;-79
2023/01/29 07:23:08;;;;;;;12.97;8.23;;;;;;;;;;5112906;28;20282;-79
2023/01/29 07:25:35;;;;;;;12.00;8.63;;;;;;;;;;5112749;28;20196;-80
2023/01/29 07:28:02;;;;;;;13.77;9.53;;;;;;;;;;5111589;28;20348;-79
2023/01/29 07:30:30;;;;;;;18.23;11.60;;;;;;;;;;5097906;28;20777;-79
2023/01/29 07:33:01;;;;;;;18.57;12.00;;;;;;;;;;5092120;28;20291;-80
2023/01/29 07:35:28;;;;;;;18.70;12.03;;;;;;;;;;5092173;28;20291;-80
2023/01/29 07:37:57;;;;;;;15.10;10.83;;;;;;;;;;5091788;28;20290;-80
2023/01/29 07:40:24;;;;;;;15.60;10.60;;;;;;;;;;5092010;28;20283;-79
2023/01/29 07:42:51;;;;;;;12.90;10.03;;;;;;;;;;5092062;28;20286;-80
2023/01/29 07:45:18;;;;;;;15.40;9.63;;;;;;;;;;5091751;28;20290;-79
2023/01/29 07:47:45;;;;;;;14.70;10.37;;;;;;;;;;5091353;28;20225;-79
2023/01/29 07:50:13;;;;;;;14.67;9.67;;;;;;;;;;5091819;28;20278;-80
2023/01/29 07:52:40;;;;;;;12.00;8.83;;;;;;;;;;5091733;28;20237;-80
2023/01/29 07:55:09;;;;;;;16.20;11.10;;;;;;;;;;5110802;28;20286;-79
2023/01/29 07:57:36;;;;;;;17.03;11.50;;;;;;;;;;5111743;28;20289;-79
2023/01/29 08:00:03;;;;;;;17.57;13.07;;;;;;;;;;5112051;28;20232;-78
2023/01/29 08:02:31;;;;;;;17.53;12.50;;;;;;;;;;5095222;28;20286;-79
2023/01/29 08:04:58;;;;;;;16.90;12.27;;;;;;;;;;5091361;28;20723;-79
2023/01/29 08:07:25;;;;;;;16.90;12.20;;;;;;;;;;5091800;28;20225;-79
2023/01/29 08:09:52;;;;;;;14.77;11.40;;;;;;;;;;5091062;28;20316;-79
2023/01/29 08:12:21;;;;;;;17.00;11.90;;;;;;;;;;5106240;28;20296;-80
2023/01/29 08:14:49;;;;;;;17.83;12.20;;;;;;;;;;5111510;28;20202;-78
2023/01/29 08:17:16;;;;;;;17.03;12.03;;;;;;;;;;5111571;28;20667;-80
2023/01/29 08:19:43;;;;;;;15.43;11.83;;;;;;;;;;5111528;28;20776;-78
2023/01/29 08:22:10;;;;;;;17.37;12.63;;;;;;;;;;5122827;27;20219;-79
2023/01/29 08:24:38;;;;;;;21.50;15.30;;;;;;;;;;5116588;27;20725;-79
2023/01/29 08:27:05;;;;;;;22.20;15.47;;;;;;;;;;5091076;28;20314;-79
2023/01/29 08:29:33;;;;;;;22.47;14.90;;;;;;;;;;5091952;28;20319;-78
2023/01/29 08:32:01;;;;;;;19.87;14.23;;;;;;;;;;5091084;28;20221;-79
2023/01/29 08:34:28;;;;;;;21.00;13.53;;;;;;;;;;5090762;28;20201;-79
2023/01/29 08:36:55;;;;;;;16.07;11.43;;;;;;;;;;5091055;28;20233;-78
2023/01/29 08:39:22;;;;;;;16.13;12.33;;;;;;;;;;5091545;28;20300;-78
2023/01/29 08:41:49;;;;;;;18.67;13.43;;;;;;;;;;5095245;28;20291;-78
2023/01/29 08:44:16;;;;;;;17.77;13.73;;;;;;;;;;5095380;28;20290;-78
2023/01/29 08:46:45;;;;;;;19.00;14.50;;;;;;;;;;5106239;27;20287;-77
2023/01/29 08:49:12;;;;;;;19.57;14.80;;;;;;;;;;5116677;27;20280;-78
2023/01/29 08:51:39;;;;;;;18.83;14.10;;;;;;;;;;5102839;28;20282;-78
2023/01/29 08:54:06;;;;;;;19.00;14.73;;;;;;;;;;5094782;28;20301;-78
2023/01/29 08:56:34;;;;;;;18.50;12.63;;;;;;;;;;5094484;28;20221;-77
2023/01/29 08:59:01;;;;;;;18.50;14.43;;;;;;;;;;5094932;28;20284;-78
2023/01/29 09:01:28;;;;;;;19.27;14.47;;;;;;;;;;5094450;28;20293;-77
2023/01/29 09:03:57;;;;;;;17.47;12.97;;;;;;;;;;5095101;28;20221;-77
2023/01/29 09:06:24;;;;;;;16.10;11.50;;;;;;;;;;5117878;27;20223;-78
2023/01/29 09:08:51;;;;;;;15.10;11.70;;;;;;;;;;5114862;27;20191;-78
2023/01/29 09:11:18;;;;;;;14.53;10.97;;;;;;;;;;5115145;28;20319;-78
2023/01/29 09:13:45;;;;;;;17.87;11.13;;;;;;;;;;5115563;28;20661;-79
2023/01/29 09:16:12;;;;;;;14.97;11.00;;;;;;;;;;5095236;28;20218;-79
2023/01/29 09:18:40;;;;;;;18.83;11.40;;;;;;;;;;5094700;28;20280;-77
2023/01/29 09:21:08;;;;;;;14.53;11.03;;;;;;;;;;5094319;28;20260;-79
2023/01/29 09:23:36;;;;;;;14.00;10.93;;;;;;;;;;5115076;27;20221;-78
2023/01/29 09:26:03;;;;;;;13.20;9.67;;;;;;;;;;5112905;27;20299;-79
2023/01/29 09:28:30;;;;;;;14.33;9.53;;;;;;;;;;5107595;28;20261;-79
2023/01/29 09:30:57;;;;;;;13.27;9.70;;;;;;;;;;5094322;28;20230;-80
2023/01/29 09:33:25;;;;;;;15.33;9.87;;;;;;;;;;5094662;28;20289;-79
2023/01/29 09:35:52;;;;;;;12.97;9.30;;;;;;;;;;5094864;28;20197;-79
2023/01/29 09:38:20;;;;;;;11.83;8.80;;;;;;;;;;5124147;27;20289;-78
2023/01/29 09:40:54;;;;;;;13.43;9.40;;;;;;;;;;5122667;27;20298;-78
2023/01/29 09:43:23;;;;;;;12.83;9.50;;;;;;;;;;5123857;27;20283;-80
2023/01/29 09:45:53;;;;;;;13.00;9.07;;;;;;;;;;5120565;27;20274;-80
2023/01/29 09:48:20;;;;;;;12.80;9.43;;;;;;;;;;5122676;27;20285;-80
2023/01/29 09:50:48;;;;;;;13.97;9.47;;;;;;;;;;5122408;27;20303;-80
2023/01/29 09:53:19;;;;;;;13.60;9.07;;;;;;;;;;5108723;27;20233;-80
2023/01/29 09:55:51;;;;;;;13.37;10.20;;;;;;;;;;5115671;27;20228;-78
2023/01/29 09:58:20;;;;;;;16.53;12.13;;;;;;;;;;5131847;27;20280;-80
2023/01/29 10:00:51;;;;;;;15.43;11.73;;;;;;;;;;5134690;27;20292;-79
2023/01/29 10:03:24;;;;;;;15.70;11.73;;;;;;;;;;5125415;27;20288;-82
2023/01/29 10:05:57;;;;;;;15.13;11.07;;;;;;;;;;5104075;27;20202;-81
2023/01/29 10:08:34;;;;;;;16.77;11.40;;;;;;;;;;5105942;28;20225;-82
2023/01/29 10:11:04;;;;;;;14.90;11.30;;;;;;;;;;5111647;28;20789;-81
2023/01/29 10:13:41;;;;;;;13.10;10.73;;;;;;;;;;5108311;28;20292;-82
2023/01/29 10:16:13;;;;;;;19.13;11.47;;;;;;;;;;5111934;28;20538;-82
2023/01/29 10:18:45;;;;;;;14.77;11.07;;;;;;;;;;5112034;28;20296;-80
2023/01/29 10:21:20;;;;;;;15.73;11.30;;;;;;;;;;5108502;28;20293;-82
2023/01/29 10:23:48;;;;;;;13.63;10.10;;;;;;;;;;5114668;28;20217;-84
2023/01/29 10:26:17;;;;;;;16.77;11.03;;;;;;;;;;5113314;28;20225;-84
2023/01/29 10:28:46;;;;;;;13.57;10.00;;;;;;;;;;5112740;28;21002;-83
2023/01/29 10:31:16;;;;;;;12.67;10.23;;;;;;;;;;5109323;28;20225;-83
2023/01/29 10:33:46;;;;;;;13.33;10.00;;;;;;;;;;5116323;27;20284;-84
2023/01/29 10:36:14;;;;;;;16.67;11.83;;;;;;;;;;5128917;27;20289;-84
2023/01/29 10:38:44;;;;;;;15.97;11.30;;;;;;;;;;5113496;28;20214;-82
2023/01/29 10:41:27;;;;;;;15.60;11.37;;;;;;;;;;5111345;28;20194;-83
2023/01/29 10:44:01;;;;;;;16.57;11.03;;;;;;;;;;5119953;27;20278;-84
2023/01/29 10:46:35;;;;;;;14.83;10.90;;;;;;;;;;5122232;27;20185;-83
2023/01/29 10:49:11;;;;;;;13.57;10.50;;;;;;;;;;5119927;27;20285;-83
2023/01/29 10:51:44;;;;;;;17.37;11.97;;;;;;;;;;5119937;27;20312;-83
2023/01/29 10:54:20;;;;;;;13.47;11.03;;;;;;;;;;5112410;27;20293;-86
2023/01/29 10:56:58;;;;;;;13.03;9.90;;;;;;;;;;5120391;27;20292;-79
2023/01/29 10:59:35;;;;;;;12.40;10.40;;;;;;;;;;5118248;27;20273;-83
2023/01/29 11:02:03;;;;;;;11.30;9.50;;;;;;;;;;5119307;27;20239;-81
2023/01/29 11:04:31;;;;;;;15.23;10.50;;;;;;;;;;5117548;27;20284;-82
2023/01/29 11:06:59;;;;;;;13.03;9.80;;;;;;;;;;5119091;27;20202;-82
2023/01/29 11:09:31;;;;;;;14.43;9.50;;;;;;;;;;5120881;27;20650;-83
2023/01/29 11:12:01;;;;;;;14.57;9.60;;;;;;;;;;5119558;27;20236;-81
2023/01/29 11:14:30;;;;;;;13.83;9.43;;;;;;;;;;5122280;27;20285;-83
2023/01/29 11:16:57;;;;;;;13.93;10.20;;;;;;;;;;5121964;27;20216;-82
2023/01/29 11:19:37;;;;;;;14.30;11.10;;;;;;;;;;5121873;27;20220;-82
2023/01/29 11:22:04;;;;;;;17.20;12.50;;;;;;;;;;5113565;27;20280;-82
2023/01/29 11:24:31;;;;;;;16.43;12.47;;;;;;;;;;5125003;27;20249;-83
2023/01/29 11:27:00;;;;;;;17.37;11.23;;;;;;;;;;5127409;27;20242;-82
2023/01/29 11:29:42;;;;;;;15.97;11.47;;;;;;;;;;5123852;27;20185;-82
2023/01/29 11:32:13;;;;;;;14.80;11.07;;;;;;;;;;5109415;27;20225;-82
2023/01/29 11:34:55;;;;;;;18.30;12.40;;;;;;;;;;5110566;28;20297;-81
2023/01/29 11:37:22;;;;;;;18.47;13.33;;;;;;;;;;5107493;28;20254;-82
2023/01/29 11:39:50;;;;;;;15.63;12.03;;;;;;;;;;5110983;27;20250;-81
2023/01/29 11:42:21;;;;;;;16.83;13.47;;;;;;;;;;5112803;28;20228;-81
2023/01/29 11:44:48;;;;;;;16.83;11.70;;;;;;;;;;5107905;28;20288;-81
2023/01/29 11:47:19;;;;;;;17.03;11.90;;;;;;;;;;5111572;28;20268;-81
2023/01/29 11:49:47;;;;;;;15.33;11.70;;;;;;;;;;5111879;28;20229;-81
2023/01/29 11:52:15;;;;;;;14.10;11.30;;;;;;;;;;5111672;28;20316;-81
2023/01/29 11:54:45;;;;;;;17.07;12.20;;;;;;;;;;5111311;28;20198;-81
2023/01/29 11:57:20;;;;;;;15.50;11.37;;;;;;;;;;5106864;28;20285;-81
2023/01/29 11:59:50;;;;;;;14.60;11.77;;;;;;;;;;5107560;28;20288;-82
2023/01/29 12:02:25;;;;;;;14.93;11.33;;;;;;;;;;5110056;28;20284;-81
2023/01/29 12:04:53;;;;;;;16.23;10.90;;;;;;;;;;5100564;28;20201;-81
2023/01/29 12:07:20;;;;;;;14.07;11.07;;;;;;;;;;5111517;28;20229;-81
2023/01/29 12:09:55;;;;;;;15.07;12.07;;;;;;;;;;5111475;28;20616;-82
2023/01/29 12:12:29;;;;;;;19.10;12.33;;;;;;;;;;5111752;28;20311;-81
2023/01/29 12:15:05;;;;;;;16.60;11.20;;;;;;;;;;5111810;28;20295;-81
2023/01/29 12:17:36;;;;;;;16.00;11.23;;;;;;;;;;5111681;28;20280;-84
2023/01/29 12:20:05;;;;;;;18.13;11.37;;;;;;;;;;5111357;28;20193;-80
2023/01/29 12:22:39;;;;;;;16.60;11.60;;;;;;;;;;5106977;27;20205;-80
2023/01/29 12:25:10;;;;;;;13.83;10.80;;;;;;;;;;5105817;27;20197;-79
2023/01/29 12:27:40;;;;;;;15.63;10.73;;;;;;;;;;5115903;27;20257;-80
2023/01/29 12:30:13;;;;;;;14.43;10.63;;;;;;;;;;5120313;28;20284;-80
2023/01/29 12:32:43;;;;;;;13.90;10.33;;;;;;;;;;5119283;28;20235;-79
2023/01/29 12:35:14;;;;;;;13.43;10.57;;;;;;;;;;5112619;28;20276;-80
2023/01/29 12:37:45;;;;;;;16.20;11.50;;;;;;;;;;5117196;28;20196;-79
2023/01/29 12:40:14;;;;;;;14.90;10.87;;;;;;;;;;5121215;28;20585;-79
2023/01/29 12:42:42;;;;;;;17.80;10.93;;;;;;;;;;5121258;28;20193;-79
2023/01/29 12:45:17;;;;;;;15.73;11.60;;;;;;;;;;5129985;28;20189;-78
2023/01/29 12:47:46;;;;;;;15.43;11.50;;;;;;;;;;5131223;28;20188;-80
2023/01/29 12:50:17;;;;;;;14.97;10.73;;;;;;;;;;5110747;28;20224;-74
2023/01/29 12:52:47;;;;;;;13.30;10.23;;;;;;;;;;5111091;28;20316;-81
2023/01/29 12:55:16;;;;;;;15.50;11.27;;;;;;;;;;5110976;28;20277;-82
2023/01/29 12:57:47;;;;;;;17.27;11.23;;;;;;;;;;5110773;28;20646;-82
2023/01/29 13:00:19;;;;;;;18.50;12.50;;;;;;;;;;5111216;28;20863;-82
2023/01/29 13:02:48;;;;;;;15.57;10.53;;;;;;;;;;5111050;28;20237;-82
2023/01/29 13:05:20;;;;;;;15.10;11.37;;;;;;;;;;5116444;28;20236;-81
2023/01/29 13:07:49;;;;;;;17.17;12.70;;;;;;;;;;5131571;27;20292;-80
2023/01/29 13:10:18;;;;;;;15.70;11.43;;;;;;;;;;5130712;27;20225;-81
2023/01/29 13:12:50;;;;;;;18.60;12.47;;;;;;;;;;5102433;28;20218;-79
2023/01/29 13:15:23;;;;;;;16.07;11.17;;;;;;;;;;5099943;28;20302;-82
2023/01/29 13:17:52;;;;;;;12.97;10.23;;;;;;;;;;5090988;28;20274;-81
2023/01/29 13:20:21;;;;;;;14.93;11.67;;;;;;;;;;5108985;28;20288;-81
2023/01/29 13:22:50;;;;;;;15.33;11.70;;;;;;;;;;5120474;28;20634;-82
2023/01/29 13:25:18;;;;;;;15.10;11.67;;;;;;;;;;5131484;27;20280;-81
2023/01/29 13:27:46;;;;;;;18.40;13.50;;;;;;;;;;5130593;27;20313;-82
2023/01/29 13:30:26;;;;;;;17.80;13.50;;;;;;;;;;5115397;28;20518;-81
2023/01/29 13:32:54;;;;;;;18.90;12.37;;;;;;;;;;5119591;27;20495;-81
2023/01/29 13:35:22;;;;;;;17.20;11.73;;;;;;;;;;5110152;27;20725;-79
2023/01/29 13:37:50;;;;;;;13.87;10.37;;;;;;;;;;5125994;27;20293;-76
2023/01/29 13:40:24;;;;;;;15.07;10.47;;;;;;;;;;5117825;27;20617;-77
2023/01/29 13:42:53;;;;;;;15.17;10.67;;;;;;;;;;5114133;28;20186;-76
2023/01/29 13:45:21;;;;;;;16.53;11.50;;;;;;;;;;5112387;28;20198;-76
2023/01/29 13:47:50;;;;;;;16.57;10.60;;;;;;;;;;5110760;28;20632;-77
2023/01/29 13:50:25;;;;;;;12.87;10.27;;;;;;;;;;5127200;27;20223;-76
2023/01/29 13:52:56;;;;;;;13.17;11.00;;;;;;;;;;5127049;27;20249;-78
2023/01/29 13:55:29;;;;;;;15.07;10.70;;;;;;;;;;5124926;27;21018;-77
2023/01/29 13:58:00;;;;;;;17.80;12.10;;;;;;;;;;5114120;27;20221;-78
2023/01/29 14:01:01;;;;;;;16.97;11.73;;;;;;;;;;5113736;28;20289;-78
2023/01/29 14:03:55;;;;;;;13.93;10.43;;;;;;;;;;5113555;28;20281;-77
2023/01/29 14:06:52;;;;;;;13.40;10.57;;;;;;;;;;5114256;27;20277;-77
2023/01/29 14:09:38;;;;;;;15.90;10.00;;;;;;;;;;5127004;27;20189;-78
2023/01/29 14:12:27;;;;;;;14.90;10.67;;;;;;;;;;5126785;27;20644;-77
2023/01/29 14:15:14;;;;;;;13.37;10.47;;;;;;;;;;5112106;27;20708;-81
2023/01/29 14:17:54;;;;;;;15.10;11.30;;;;;;;;;;5108581;28;20358;-80
2023/01/29 14:20:24;;;;;;;15.10;11.67;;;;;;;;;;5116330;27;20217;-80
2023/01/29 14:22:54;;;;;;;17.33;12.53;;;;;;;;;;5115179;27;20284;-81
2023/01/29 14:25:24;;;;;;;16.67;12.20;;;;;;;;;;5109760;27;20289;-80
2023/01/29 14:27:53;;;;;;;16.43;12.53;;;;;;;;;;5115203;27;20321;-79
2023/01/29 14:30:21;;;;;;;17.13;12.47;;;;;;;;;;5117382;27;20284;-80
2023/01/29 14:32:50;;;;;;;16.03;12.00;;;;;;;;;;5114346;27;20650;-81
2023/01/29 14:35:18;;;;;;;17.50;12.33;;;;;;;;;;5106308;27;20197;-81
2023/01/29 14:37:47;;;;;;;15.97;11.63;;;;;;;;;;5122319;27;20201;-81
2023/01/29 14:40:19;;;;;;;15.30;12.53;;;;;;;;;;5119640;27;20194;-79
2023/01/29 14:42:51;;;;;;;16.30;12.37;;;;;;;;;;5114028;27;20280;-79
2023/01/29 14:45:30;;;;;;;15.37;12.67;;;;;;;;;;5116221;27;20207;-81
2023/01/29 14:48:12;;;;;;;18.53;12.93;;;;;;;;;;5108900;27;20739;-80
2023/01/29 14:50:44;;;;;;;19.53;12.90;;;;;;;;;;5114509;27;20704;-82
2023/01/29 14:53:14;;;;;;;15.60;11.87;;;;;;;;;;5114882;27;20224;-81
2023/01/29 14:55:42;;;;;;;17.93;12.70;;;;;;;;;;5112099;27;20743;-80
2023/01/29 14:58:13;;;;;;;17.30;13.07;;;;;;;;;;5112240;28;20658;-82
2023/01/29 15:00:43;;;;;;;18.90;12.80;;;;;;;;;;5115260;27;20280;-82
2023/01/29 15:03:13;;;;;;;19.13;12.10;;;;;;;;;;5113816;27;20201;-82
2023/01/29 15:05:42;;;;;;;16.40;12.87;;;;;;;;;;5113698;27;20229;-80
2023/01/29 15:08:17;;;;;;;19.50;14.63;;;;;;;;;;5117241;27;20646;-80
2023/01/29 15:10:46;;;;;;;19.83;14.47;;;;;;;;;;5113033;27;20283;-80